Time;durP1;ratioP1;P1;durP2;ratioP2;P2;SDS_P1;SDS_P2;PMS_P1;PMS_P2;Temp;Humidity;BMP_temperature;BMP_pressure;BME280_temperature;BME280_humidity;BME280_pressure;Samples;Min_cycle;Max_cycle;Signal;HPM_P1;HPM_P2
2021/10/06 00:00:17;;;;;;;;;20.00;20.00;22.30;31.40;;;;;;5076938;28;8776;-65
2021/10/06 00:02:42;;;;;;;;;22.00;22.00;22.50;31.00;;;;;;5076714;28;8869;-66
2021/10/06 00:05:09;;;;;;;;;25.67;25.67;22.60;31.10;;;;;;5076659;28;8849;-66
2021/10/06 00:07:35;;;;;;;;;24.67;24.67;22.30;30.70;;;;;;5076748;28;8802;-66
2021/10/06 00:10:03;;;;;;;;;16.33;16.33;22.30;30.90;;;;;;5076547;28;8758;-64
2021/10/06 00:12:28;;;;;;;;;25.00;23.33;22.20;31.30;;;;;;5076654;28;8754;-66
2021/10/06 00:14:54;;;;;;;;;24.00;24.00;22.40;31.10;;;;;;5076291;28;8808;-66
2021/10/06 00:17:20;;;;;;;;;25.33;25.33;22.10;30.60;;;;;;5076510;28;8830;-64
2021/10/06 00:19:46;;;;;;;;;24.00;24.00;22.10;30.70;;;;;;5076247;28;8774;-65
2021/10/06 00:22:11;;;;;;;;;25.00;25.00;22.20;30.60;;;;;;5076236;28;8785;-64
2021/10/06 00:24:37;;;;;;;;;22.67;22.67;22.10;30.40;;;;;;5076204;28;8794;-67
2021/10/06 00:27:03;;;;;;;;;25.00;25.00;22.10;30.70;;;;;;5076023;28;8889;-65
2021/10/06 00:29:29;;;;;;;;;24.00;24.00;21.80;30.40;;;;;;5074877;28;8797;-67
2021/10/06 00:31:54;;;;;;;;;23.00;23.00;21.50;31.60;;;;;;5075960;28;8790;-66
2021/10/06 00:34:21;;;;;;;;;25.67;25.67;21.70;32.20;;;;;;5075931;28;8798;-66
2021/10/06 00:36:47;;;;;;;;;19.33;19.33;22.00;32.10;;;;;;5076083;28;9464;-64
2021/10/06 00:39:13;;;;;;;;;25.00;25.00;21.90;31.00;;;;;;5075600;28;8906;-66
2021/10/06 00:41:39;;;;;;;;;25.00;25.00;21.70;31.50;;;;;;5075835;28;8754;-67
2021/10/06 00:44:05;;;;;;;;;24.33;24.33;22.00;31.20;;;;;;5075688;28;9524;-67
2021/10/06 00:46:31;;;;;;;;;20.67;19.67;22.10;30.70;;;;;;5075716;28;8766;-66
2021/10/06 00:48:56;;;;;;;;;22.67;22.67;22.20;30.50;;;;;;5075999;28;8785;-66
2021/10/06 00:51:22;;;;;;;;;19.67;19.67;22.00;30.40;;;;;;5058125;28;9609;-66
2021/10/06 00:53:48;;;;;;;;;29.67;29.67;22.20;30.40;;;;;;5075788;28;8811;-64
2021/10/06 00:56:15;;;;;;;;;13.33;13.33;21.80;30.40;;;;;;5075563;28;9461;-66
2021/10/06 00:58:41;;;;;;;;;26.33;26.33;21.70;31.20;;;;;;5075751;28;9731;-66
2021/10/06 01:01:07;;;;;;;;;23.33;23.33;21.60;31.00;;;;;;5075451;28;8884;-67
2021/10/06 01:03:33;;;;;;;;;25.33;25.33;21.80;30.70;;;;;;5075369;28;8950;-67
2021/10/06 01:05:59;;;;;;;;;25.00;25.00;21.90;30.30;;;;;;5075595;28;8754;-67
2021/10/06 01:08:24;;;;;;;;;23.67;23.67;21.90;30.30;;;;;;5075587;28;8801;-67
2021/10/06 01:10:53;;;;;;;;;25.00;25.00;21.70;30.60;;;;;;5075470;28;8837;-66
2021/10/06 01:13:19;;;;;;;;;15.67;15.67;21.80;30.60;;;;;;5074995;28;8916;-67
2021/10/06 01:15:45;;;;;;;;;25.33;25.33;21.80;30.70;;;;;;5075447;28;8888;-67
2021/10/06 01:18:11;;;;;;;;;21.67;21.67;21.80;30.40;;;;;;5075032;28;9489;-66
2021/10/06 01:20:38;;;;;;;;;24.00;24.00;22.00;30.30;;;;;;5075271;28;8774;-66
2021/10/06 01:23:04;;;;;;;;;26.67;26.00;22.00;30.00;;;;;;5075076;28;8789;-65
2021/10/06 01:25:30;;;;;;;;;23.33;23.33;21.70;30.30;;;;;;5075230;28;8784;-68
2021/10/06 01:27:55;;;;;;;;;24.33;24.33;21.80;30.40;;;;;;5074886;28;8781;-65
2021/10/06 01:30:21;;;;;;;;;25.00;25.00;21.30;31.20;;;;;;5074826;28;8770;-67
2021/10/06 01:32:47;;;;;;;;;23.33;23.33;21.40;30.90;;;;;;5074963;28;8876;-66
2021/10/06 01:35:14;;;;;;;;;24.67;24.67;21.60;31.90;;;;;;5075306;28;8774;-67
2021/10/06 01:37:45;;;;;;;;;21.67;21.67;21.50;30.40;;;;;;5074733;28;8839;-67
2021/10/06 01:40:14;;;;;;;;;22.67;22.67;21.60;30.60;;;;;;5074688;28;8774;-66
2021/10/06 01:42:40;;;;;;;;;25.33;25.33;21.60;30.30;;;;;;5074954;28;8761;-67
2021/10/06 01:45:13;;;;;;;;;22.33;22.33;21.70;30.20;;;;;;5074898;28;8821;-67
2021/10/06 01:47:39;;;;;;;;;22.33;22.33;21.60;30.10;;;;;;5074811;28;9489;-67
2021/10/06 01:50:05;;;;;;;;;25.33;25.33;21.40;30.50;;;;;;5074574;28;8888;-65
2021/10/06 01:52:31;;;;;;;;;22.67;22.67;21.40;30.80;;;;;;5074777;28;8770;-65
2021/10/06 01:54:57;;;;;;;;;24.33;24.33;21.70;30.40;;;;;;5074653;28;9500;-66
2021/10/06 01:57:22;;;;;;;;;22.00;22.00;21.60;30.20;;;;;;5074676;28;9597;-67
2021/10/06 01:59:49;;;;;;;;;23.00;23.00;21.70;30.20;;;;;;5074678;28;9454;-66
2021/10/06 02:02:16;;;;;;;;;21.67;21.67;21.00;31.30;;;;;;5074645;28;8770;-67
2021/10/06 02:04:43;;;;;;;;;25.67;25.67;20.90;31.60;;;;;;5074488;28;8770;-67
2021/10/06 02:07:08;;;;;;;;;27.33;27.33;20.80;32.10;;;;;;5074431;28;8810;-67
2021/10/06 02:09:34;;;;;;;;;26.33;26.33;20.80;31.90;;;;;;5074636;28;8805;-66
2021/10/06 02:12:01;;;;;;;;;25.67;25.67;20.80;31.90;;;;;;5074311;28;8896;-67
2021/10/06 02:14:27;;;;;;;;;25.33;25.33;20.90;31.80;;;;;;5056488;28;8814;-66
2021/10/06 02:16:53;;;;;;;;;23.67;23.67;20.40;32.80;;;;;;5074580;28;8781;-66
2021/10/06 02:19:18;;;;;;;;;15.00;15.00;20.90;32.00;;;;;;5074801;28;8772;-67
2021/10/06 02:21:44;;;;;;;;;23.67;23.67;20.90;31.70;;;;;;5074534;28;8854;-66
2021/10/06 02:24:10;;;;;;;;;26.00;26.00;20.70;31.90;;;;;;5074225;28;8782;-67
2021/10/06 02:26:36;;;;;;;;;18.00;18.00;20.60;32.10;;;;;;5074476;28;8774;-65
2021/10/06 02:29:02;;;;;;;;;27.33;27.33;20.60;32.30;;;;;;5074193;28;9530;-66
2021/10/06 02:31:28;;;;;;;;;22.67;22.67;20.80;31.50;;;;;;5054833;28;8817;-67
2021/10/06 02:33:54;;;;;;;;;25.00;25.00;20.50;32.00;;;;;;5054043;28;8925;-66
2021/10/06 02:36:20;;;;;;;;;24.33;24.33;20.40;32.70;;;;;;5053980;28;8794;-66
2021/10/06 02:38:46;;;;;;;;;12.67;12.67;20.50;32.30;;;;;;5053935;28;8841;-67
2021/10/06 02:41:11;;;;;;;;;22.00;22.00;20.90;31.60;;;;;;5054122;28;8809;-66
2021/10/06 02:43:37;;;;;;;;;26.00;26.00;21.00;31.10;;;;;;5053981;28;8834;-65
2021/10/06 02:46:03;;;;;;;;;23.67;23.67;21.10;31.00;;;;;;5053991;28;8783;-66
2021/10/06 02:48:29;;;;;;;;;23.00;23.00;20.80;31.60;;;;;;5053926;28;8787;-66
2021/10/06 02:50:55;;;;;;;;;22.00;22.00;20.90;31.60;;;;;;5054014;28;8881;-66
2021/10/06 02:53:20;;;;;;;;;25.33;25.33;21.30;31.40;;;;;;5057235;28;8806;-67
2021/10/06 02:55:46;;;;;;;;;26.00;26.00;21.10;31.00;;;;;;5058152;28;8767;-67
2021/10/06 02:58:12;;;;;;;;;25.67;25.33;21.20;30.80;;;;;;5057785;28;8862;-67
2021/10/06 03:00:39;;;;;;;;;24.67;24.67;21.30;30.90;;;;;;5057917;28;8891;-67
2021/10/06 03:03:05;;;;;;;;;23.00;23.00;21.20;30.80;;;;;;5057737;28;8771;-68
2021/10/06 03:05:31;;;;;;;;;22.67;22.67;21.50;30.50;;;;;;5057673;28;8905;-67
2021/10/06 03:07:57;;;;;;;;;21.67;21.67;21.70;30.20;;;;;;5057802;28;8814;-67
2021/10/06 03:10:23;;;;;;;;;26.00;26.00;21.50;30.30;;;;;;5057564;28;8795;-67
2021/10/06 03:12:49;;;;;;;;;24.00;24.00;21.60;30.30;;;;;;5057409;28;8775;-67
2021/10/06 03:15:15;;;;;;;;;26.00;26.00;21.40;30.20;;;;;;5057838;28;8836;-66
2021/10/06 03:17:40;;;;;;;;;19.33;19.33;21.30;30.80;;;;;;5057676;28;8790;-65
2021/10/06 03:20:09;;;;;;;;;25.67;24.67;21.60;31.60;;;;;;5057631;28;8747;-66
2021/10/06 03:22:35;;;;;;;;;23.00;23.00;21.60;30.40;;;;;;5057638;28;9547;-65
2021/10/06 03:25:01;;;;;;;;;23.00;23.00;21.70;30.00;;;;;;5057288;28;8787;-65
2021/10/06 03:27:27;;;;;;;;;23.67;23.67;21.70;30.00;;;;;;5057230;28;8807;-66
2021/10/06 03:29:52;;;;;;;;;24.33;24.33;21.60;30.30;;;;;;5057449;28;8767;-67
2021/10/06 03:32:19;;;;;;;;;21.33;21.33;21.30;30.50;;;;;;5057401;28;8793;-65
2021/10/06 03:34:44;;;;;;;;;23.33;23.33;21.60;30.50;;;;;;5057031;28;9939;-66
2021/10/06 03:37:10;;;;;;;;;25.00;25.00;21.70;30.30;;;;;;5057206;28;8929;-66
2021/10/06 03:39:36;;;;;;;;;26.33;26.33;21.50;30.30;;;;;;5072057;28;8851;-67
2021/10/06 03:42:02;;;;;;;;;20.33;20.00;21.60;31.60;;;;;;5091365;28;8780;-67
2021/10/06 03:44:28;;;;;;;;;26.00;26.00;21.40;32.20;;;;;;5086175;28;9572;-66
2021/10/06 03:46:54;;;;;;;;;30.33;29.33;21.30;32.50;;;;;;5097483;28;8776;-67
2021/10/06 03:49:20;;;;;;;;;28.33;28.33;21.60;32.80;;;;;;5097208;28;8768;-66
2021/10/06 03:51:45;;;;;;;;;20.00;20.00;21.60;32.00;;;;;;5097118;28;8776;-65
2021/10/06 03:54:11;;;;;;;;;26.00;26.00;21.70;31.50;;;;;;5096953;28;8819;-65
2021/10/06 03:56:37;;;;;;;;;22.00;22.00;21.50;31.20;;;;;;5097012;28;8784;-67
2021/10/06 03:59:03;;;;;;;;;25.67;25.67;21.30;31.60;;;;;;5097176;28;8769;-67
2021/10/06 04:01:29;;;;;;;;;24.00;24.00;21.30;31.30;;;;;;5096812;28;8756;-65
2021/10/06 04:03:54;;;;;;;;;27.00;27.00;21.50;31.60;;;;;;5096835;28;8764;-64
2021/10/06 04:06:20;;;;;;;;;22.00;22.00;21.60;31.00;;;;;;5096913;28;8798;-67
2021/10/06 04:08:46;;;;;;;;;26.00;26.00;21.60;30.80;;;;;;5078994;28;8759;-67
2021/10/06 04:11:12;;;;;;;;;24.33;24.33;21.70;31.00;;;;;;5083621;28;8778;-66
2021/10/06 04:13:37;;;;;;;;;27.00;27.00;21.80;31.20;;;;;;5056268;28;9031;-66
2021/10/06 04:16:03;;;;;;;;;25.00;25.00;21.90;30.80;;;;;;5056432;28;8753;-66
2021/10/06 04:18:29;;;;;;;;;31.33;31.33;21.70;30.80;;;;;;5061935;28;8793;-67
2021/10/06 04:20:56;;;;;;;;;26.67;26.67;21.80;31.00;;;;;;5064742;28;8802;-66
2021/10/06 04:23:21;;;;;;;;;27.33;27.33;21.40;31.20;;;;;;5058533;28;8768;-67
2021/10/06 04:25:47;;;;;;;;;26.67;26.67;21.50;31.90;;;;;;5056409;28;8771;-67
2021/10/06 04:28:13;;;;;;;;;26.33;26.33;21.60;32.00;;;;;;5056412;28;8756;-66
2021/10/06 04:30:39;;;;;;;;;28.33;28.33;21.60;32.60;;;;;;5056092;28;8760;-67
2021/10/06 04:33:04;;;;;;;;;25.67;25.67;21.60;33.60;;;;;;5055969;28;8811;-66
2021/10/06 04:35:30;;;;;;;;;18.33;18.33;21.70;34.20;;;;;;5055999;28;8764;-68
2021/10/06 04:37:56;;;;;;;;;26.00;26.00;21.60;35.30;;;;;;5055787;28;8828;-67
2021/10/06 04:40:22;;;;;;;;;28.00;28.00;21.70;36.80;;;;;;5082658;28;8821;-66
2021/10/06 04:42:48;;;;;;;;;35.33;33.00;21.90;35.90;;;;;;5086449;28;9534;-64
2021/10/06 04:45:14;;;;;;;;;28.33;28.33;21.90;37.60;;;;;;5091422;28;8865;-67
2021/10/06 04:47:40;;;;;;;;;24.67;24.67;22.00;38.00;;;;;;5096219;28;8784;-66
2021/10/06 04:50:07;;;;;;;;;31.33;31.33;22.00;38.40;;;;;;5095909;28;8780;-68
2021/10/06 04:52:33;;;;;;;;;27.00;27.00;22.00;38.30;;;;;;5096129;28;9413;-65
2021/10/06 04:54:59;;;;;;;;;37.00;34.33;22.00;38.70;;;;;;5095768;28;8807;-68
2021/10/06 04:57:24;;;;;;;;;27.00;27.00;21.90;39.10;;;;;;5095753;28;8792;-67
2021/10/06 04:59:50;;;;;;;;;31.67;31.00;21.90;39.00;;;;;;5095775;28;8789;-68
2021/10/06 05:02:16;;;;;;;;;35.33;33.67;21.80;38.70;;;;;;5095683;28;8764;-69
2021/10/06 05:04:42;;;;;;;;;28.33;28.33;21.70;38.80;;;;;;5095625;28;8764;-68
2021/10/06 05:07:08;;;;;;;;;32.33;31.67;21.80;39.10;;;;;;5088117;28;8831;-69
2021/10/06 05:09:34;;;;;;;;;33.33;32.00;21.70;39.00;;;;;;5081033;28;8794;-70
2021/10/06 05:12:00;;;;;;;;;20.67;20.67;21.70;38.80;;;;;;5086671;28;8792;-73
2021/10/06 05:14:28;;;;;;;;;34.33;32.33;21.70;38.70;;;;;;5091146;28;8826;-68
2021/10/06 05:16:54;;;;;;;;;36.75;34.00;21.70;38.80;;;;;;5079088;28;8875;-69
2021/10/06 05:19:21;;;;;;;;;33.00;32.00;21.80;38.60;;;;;;5084105;28;8768;-69
2021/10/06 05:21:46;;;;;;;;;37.00;34.67;21.70;38.20;;;;;;5079057;28;8795;-69
2021/10/06 05:24:12;;;;;;;;;33.67;33.00;21.70;37.80;;;;;;5084945;28;8780;-68
2021/10/06 05:26:38;;;;;;;;;34.00;32.33;21.70;37.50;;;;;;5082491;28;8832;-69
2021/10/06 05:29:04;;;;;;;;;43.00;37.00;21.80;38.30;;;;;;5086061;28;8790;-68
2021/10/06 05:31:30;;;;;;;;;41.50;37.00;21.80;38.10;;;;;;5082625;28;8798;-68
2021/10/06 05:33:56;;;;;;;;;37.33;35.33;21.70;38.50;;;;;;5086994;28;8805;-68
2021/10/06 05:36:23;;;;;;;;;36.67;34.67;21.70;38.60;;;;;;5085099;28;8794;-69
2021/10/06 05:38:50;;;;;;;;;42.00;38.00;21.70;38.40;;;;;;5094775;28;8816;-69
2021/10/06 05:41:16;;;;;;;;;42.67;38.33;21.60;39.80;;;;;;5085158;28;8804;-69
2021/10/06 05:43:42;;;;;;;;;29.00;29.00;21.60;39.90;;;;;;5086122;28;8776;-73
2021/10/06 05:46:08;;;;;;;;;37.33;35.33;21.70;40.20;;;;;;5081739;28;8797;-72
2021/10/06 05:48:34;;;;;;;;;35.33;33.67;21.80;40.50;;;;;;5077304;28;8903;-70
2021/10/06 05:50:59;;;;;;;;;36.00;34.00;21.70;40.70;;;;;;5083661;28;8985;-74
2021/10/06 05:53:25;;;;;;;;;37.33;33.33;21.70;40.60;;;;;;5080892;28;8974;-73
2021/10/06 05:55:51;;;;;;;;;37.67;34.00;21.70;40.80;;;;;;5082880;28;8851;-74
2021/10/06 05:58:18;;;;;;;;;37.00;36.00;21.70;41.30;;;;;;5082195;28;8774;-73
2021/10/06 06:00:44;;;;;;;;;32.67;32.00;21.70;40.80;;;;;;5093355;28;8744;-71
2021/10/06 06:03:10;;;;;;;;;36.00;33.67;21.60;41.30;;;;;;5078703;28;8770;-72
2021/10/06 06:05:40;;;;;;;;;38.67;35.00;21.40;41.40;;;;;;5082060;28;8760;-71
2021/10/06 06:08:06;;;;;;;;;39.33;35.33;21.40;42.30;;;;;;5080925;28;8802;-70
2021/10/06 06:10:32;;;;;;;;;38.67;35.00;21.50;43.10;;;;;;5084774;28;9413;-71
2021/10/06 06:12:57;;;;;;;;;37.00;34.33;21.50;41.90;;;;;;5077502;28;8766;-68
2021/10/06 06:15:23;;;;;;;;;40.33;35.67;21.50;42.60;;;;;;5073770;28;9409;-68
2021/10/06 06:17:49;;;;;;;;;40.67;36.00;21.50;42.80;;;;;;5074333;28;8880;-71
2021/10/06 06:20:17;;;;;;;;;43.00;37.67;21.50;42.70;;;;;;5074284;28;8851;-68
2021/10/06 06:22:43;;;;;;;;;40.67;36.33;21.50;41.40;;;;;;5076742;28;8770;-68
2021/10/06 06:25:11;;;;;;;;;38.25;35.75;21.20;42.20;;;;;;5081279;28;8766;-73
2021/10/06 06:27:36;;;;;;;;;47.50;40.75;21.10;42.90;;;;;;5055275;28;8802;-72
2021/10/06 06:30:04;;;;;;;;;38.00;35.25;21.00;43.90;;;;;;5068384;28;8750;-72
2021/10/06 06:32:30;;;;;;;;;44.75;39.25;21.00;44.60;;;;;;5067279;28;8757;-72
2021/10/06 06:34:56;;;;;;;;;42.75;38.00;20.90;44.50;;;;;;5077619;28;8782;-70
2021/10/06 06:37:22;;;;;;;;;43.25;38.25;20.90;44.30;;;;;;5076119;28;8782;-71
2021/10/06 06:39:48;;;;;;;;;45.00;39.25;20.70;45.10;;;;;;5078662;28;8844;-68
2021/10/06 06:42:13;;;;;;;;;47.00;40.25;20.70;45.60;;;;;;5069524;28;8775;-70
2021/10/06 06:44:39;;;;;;;;;45.75;39.50;20.70;45.70;;;;;;5086277;28;8776;-72
2021/10/06 06:47:05;;;;;;;;;44.00;38.50;20.80;46.30;;;;;;5078133;28;8781;-70
2021/10/06 06:49:31;;;;;;;;;44.50;38.00;21.00;46.60;;;;;;5091404;28;8812;-64
2021/10/06 06:51:59;;;;;;;;;39.75;36.75;21.00;46.50;;;;;;5077948;28;8754;-66
2021/10/06 06:54:26;;;;;;;;;43.00;38.75;21.00;46.00;;;;;;5078049;28;8811;-64
2021/10/06 06:56:51;;;;;;;;;44.50;38.75;20.80;45.20;;;;;;5075492;28;8730;-64
2021/10/06 06:59:17;;;;;;;;;47.50;41.00;20.70;45.90;;;;;;5073408;28;8838;-63
2021/10/06 07:01:43;;;;;;;;;45.00;40.00;20.90;46.10;;;;;;5064999;28;8908;-64
2021/10/06 07:04:09;;;;;;;;;44.75;39.00;21.00;46.10;;;;;;5065045;28;8880;-66
2021/10/06 07:06:35;;;;;;;;;46.00;40.50;21.00;45.70;;;;;;5095379;28;8775;-65
2021/10/06 07:09:03;;;;;;;;;46.75;40.00;21.10;45.90;;;;;;5097901;28;8852;-66
2021/10/06 07:11:29;;;;;;;;;51.50;43.75;21.10;45.50;;;;;;5096844;28;8748;-65
2021/10/06 07:13:55;;;;;;;;;53.25;44.25;21.00;45.50;;;;;;5097951;28;8799;-64
2021/10/06 07:16:21;;;;;;;;;55.75;46.75;21.00;45.70;;;;;;5082381;28;8780;-66
2021/10/06 07:18:47;;;;;;;;;56.25;48.00;20.90;44.30;;;;;;5077446;28;8770;-67
2021/10/06 07:21:13;;;;;;;;;50.75;43.50;20.90;45.10;;;;;;5072884;28;8794;-67
2021/10/06 07:23:39;;;;;;;;;54.50;47.00;20.90;45.10;;;;;;5079004;28;9437;-66
2021/10/06 07:26:05;;;;;;;;;55.75;46.75;20.80;45.20;;;;;;5079519;28;8774;-65
2021/10/06 07:28:31;;;;;;;;;65.50;54.75;20.90;45.60;;;;;;5083233;28;8788;-67
2021/10/06 07:30:57;;;;;;;;;64.00;51.25;20.60;45.90;;;;;;5084419;28;8789;-67
2021/10/06 07:33:23;;;;;;;;;59.50;49.25;20.60;46.00;;;;;;5079433;28;8793;-67
2021/10/06 07:35:48;;;;;;;;;63.00;52.50;20.40;46.20;;;;;;5071688;28;8795;-66
2021/10/06 07:38:15;;;;;;;;;58.00;48.50;20.60;46.50;;;;;;5096598;28;8925;-67
2021/10/06 07:40:41;;;;;;;;;52.75;45.75;20.60;46.40;;;;;;5078894;28;9404;-66
2021/10/06 07:43:07;;;;;;;;;47.00;38.75;20.50;47.20;;;;;;5076982;28;8777;-67
2021/10/06 07:45:33;;;;;;;;;49.50;42.50;20.30;46.20;;;;;;5068868;28;8828;-64
2021/10/06 07:47:59;;;;;;;;;45.75;39.50;20.10;46.90;;;;;;5088477;28;8910;-65
2021/10/06 07:50:25;;;;;;;;;47.50;40.75;19.80;47.60;;;;;;5097423;28;8866;-66
2021/10/06 07:52:51;;;;;;;;;42.00;37.50;19.80;48.10;;;;;;5097101;28;8863;-66
2021/10/06 07:55:17;;;;;;;;;44.75;39.00;20.00;47.80;;;;;;5096970;28;8811;-65
2021/10/06 07:57:44;;;;;;;;;47.75;41.25;20.20;47.90;;;;;;5096973;28;8764;-66
2021/10/06 08:00:11;;;;;;;;;45.00;39.00;20.30;47.60;;;;;;5096932;28;8768;-67
2021/10/06 08:02:36;;;;;;;;;43.25;38.75;20.50;47.50;;;;;;5085637;28;8795;-65
2021/10/06 08:05:02;;;;;;;;;43.50;39.50;20.50;47.50;;;;;;5082260;28;8788;-66
2021/10/06 08:07:28;;;;;;;;;49.50;42.00;20.50;47.70;;;;;;5087632;28;9002;-67
2021/10/06 08:09:54;;;;;;;;;43.75;38.75;20.40;48.20;;;;;;5076763;28;9510;-66
2021/10/06 08:12:20;;;;;;;;;56.00;48.00;20.10;48.40;;;;;;5076673;28;9399;-67
2021/10/06 08:14:46;;;;;;;;;47.50;41.00;20.20;48.80;;;;;;5076226;28;9451;-65
2021/10/06 08:17:11;;;;;;;;;43.00;37.75;20.40;49.20;;;;;;5076254;28;8778;-65
2021/10/06 08:19:37;;;;;;;;;44.00;38.25;20.50;48.30;;;;;;5076536;28;8766;-67
2021/10/06 08:22:04;;;;;;;;;51.25;44.25;20.10;48.40;;;;;;5092104;28;9510;-65
2021/10/06 08:24:30;;;;;;;;;42.00;39.00;20.00;49.40;;;;;;5089962;28;8789;-65
2021/10/06 08:26:56;;;;;;;;;49.00;41.50;20.20;48.90;;;;;;5086980;28;8768;-66
2021/10/06 08:29:22;;;;;;;;;41.25;37.25;20.40;48.80;;;;;;5079125;28;8788;-67
2021/10/06 08:31:48;;;;;;;;;47.50;40.75;20.60;48.80;;;;;;5096285;28;9230;-64
2021/10/06 08:34:14;;;;;;;;;36.25;34.25;20.50;48.80;;;;;;5096315;28;8787;-64
2021/10/06 08:36:40;;;;;;;;;41.50;36.50;20.50;48.30;;;;;;5088889;28;8792;-65
2021/10/06 08:39:08;;;;;;;;;43.25;38.25;20.10;49.30;;;;;;5094015;28;8902;-66
2021/10/06 08:41:34;;;;;;;;;45.25;40.00;20.10;49.60;;;;;;5096100;28;8796;-65
2021/10/06 08:44:01;;;;;;;;;44.75;39.00;19.70;50.50;;;;;;5079970;28;9319;-65
2021/10/06 08:46:27;;;;;;;;;39.25;36.00;19.40;50.00;;;;;;5075838;28;8827;-63
2021/10/06 08:48:54;;;;;;;;;44.50;38.50;19.30;51.30;;;;;;5075163;28;8870;-65
2021/10/06 08:51:21;;;;;;;;;46.00;39.00;19.60;51.00;;;;;;5075420;28;8766;-64
2021/10/06 08:53:51;;;;;;;;;42.25;38.00;19.70;50.90;;;;;;5089273;28;8972;-65
2021/10/06 08:56:18;;;;;;;;;42.75;37.00;19.70;50.60;;;;;;5096122;28;8774;-65
2021/10/06 08:58:44;;;;;;;;;47.25;41.50;19.10;51.30;;;;;;5095884;28;8744;-65
2021/10/06 09:01:21;;;;;;;;;36.50;34.75;19.00;52.00;;;;;;5084504;28;8818;-66
2021/10/06 09:03:55;;;;;;;;;47.25;41.00;18.90;52.40;;;;;;5075744;28;8758;-67
2021/10/06 09:06:21;;;;;;;;;34.00;33.00;19.00;52.50;;;;;;5075572;28;8907;-66
2021/10/06 09:08:47;;;;;;;;;40.50;36.00;19.10;51.90;;;;;;5075524;28;8758;-66
2021/10/06 09:11:14;;;;;;;;;42.50;38.00;19.30;51.20;;;;;;5075288;28;9542;-64
2021/10/06 09:13:42;;;;;;;;;37.75;35.25;19.40;49.00;;;;;;5075314;28;8798;-66
2021/10/06 09:16:10;;;;;;;;;40.75;36.50;19.80;49.60;;;;;;5078467;28;8792;-66
2021/10/06 09:18:36;;;;;;;;;43.25;38.00;19.70;48.30;;;;;;5095496;28;8816;-65
2021/10/06 09:21:08;;;;;;;;;39.67;37.00;20.10;48.50;;;;;;5095388;28;8772;-64
2021/10/06 09:23:42;;;;;;;;;42.75;36.75;19.90;47.10;;;;;;5088232;28;8776;-65
2021/10/06 09:26:12;;;;;;;;;42.25;37.25;19.80;47.50;;;;;;5086997;28;8806;-67
2021/10/06 09:28:46;;;;;;;;;38.00;34.75;20.10;47.20;;;;;;5087143;28;8810;-65
2021/10/06 09:31:19;;;;;;;;;38.50;34.50;19.80;47.20;;;;;;5081969;28;8795;-64
2021/10/06 09:33:46;;;;;;;;;47.50;41.00;19.80;47.70;;;;;;5080981;28;8924;-65
2021/10/06 09:36:21;;;;;;;;;38.75;34.75;19.50;47.50;;;;;;5093639;28;8870;-65
2021/10/06 09:39:02;;;;;;;;;43.50;38.50;19.60;48.20;;;;;;5095009;28;9521;-65
2021/10/06 09:41:36;;;;;;;;;49.75;42.50;19.70;48.80;;;;;;5082190;28;8925;-65
2021/10/06 09:44:07;;;;;;;;;38.50;36.00;20.00;47.50;;;;;;5095302;28;9569;-67
2021/10/06 09:46:56;;;;;;;;;42.75;38.25;20.30;46.70;;;;;;5078032;28;8869;-66
2021/10/06 09:49:36;;;;;;;;;41.25;37.00;19.80;47.20;;;;;;5075565;28;8774;-66
2021/10/06 09:52:25;;;;;;;;;36.25;35.00;19.90;46.50;;;;;;5092934;28;8784;-65
2021/10/06 09:55:01;;;;;;;;;40.50;36.25;20.50;46.50;;;;;;5080291;28;8803;-64
2021/10/06 09:57:40;;;;;;;;;43.75;38.25;20.40;45.70;;;;;;5077889;28;8795;-66
2021/10/06 10:00:17;;;;;;;;;41.25;37.50;20.10;46.10;;;;;;5085843;28;8777;-65
2021/10/06 10:02:44;;;;;;;;;42.25;38.25;19.90;46.10;;;;;;5076317;28;8793;-67
2021/10/06 10:05:11;;;;;;;;;47.00;40.25;19.60;47.00;;;;;;5081909;28;8920;-66
2021/10/06 10:07:37;;;;;;;;;52.75;44.25;19.60;47.60;;;;;;5075891;28;9471;-66
2021/10/06 10:10:06;;;;;;;;;38.75;35.75;19.40;47.60;;;;;;5079547;28;8770;-66
2021/10/06 10:12:32;;;;;;;;;47.00;41.00;19.60;48.90;;;;;;5074341;28;8839;-66
2021/10/06 10:14:58;;;;;;;;;42.75;38.25;19.70;48.40;;;;;;5076718;28;8778;-64
2021/10/06 10:17:25;;;;;;;;;41.25;37.50;19.00;48.80;;;;;;5076926;28;8797;-66
2021/10/06 10:19:57;;;;;;;;;48.00;41.50;19.20;49.70;;;;;;5077777;28;8766;-67
2021/10/06 10:22:26;;;;;;;;;42.75;37.50;19.40;48.90;;;;;;5074450;28;8796;-67
2021/10/06 10:24:52;;;;;;;;;44.50;39.75;19.60;48.30;;;;;;5074628;28;9644;-67
2021/10/06 10:27:23;;;;;;;;;47.25;41.25;19.20;48.10;;;;;;5078987;28;8808;-67
2021/10/06 10:29:56;;;;;;;;;44.25;37.75;19.20;49.10;;;;;;5078907;28;8905;-66
2021/10/06 10:32:26;;;;;;;;;48.25;42.00;19.10;48.30;;;;;;5092597;28;8807;-68
2021/10/06 10:35:10;;;;;;;;;45.50;39.50;19.60;47.50;;;;;;5094177;28;8799;-65
2021/10/06 10:37:51;;;;;;;;;51.00;44.25;19.40;47.50;;;;;;5087339;28;8840;-67
2021/10/06 10:40:35;;;;;;;;;54.50;46.25;19.70;47.30;;;;;;5061842;28;8794;-67
2021/10/06 10:43:03;;;;;;;;;47.75;41.50;19.90;46.80;;;;;;5074101;28;8833;-65
2021/10/06 10:45:40;;;;;;;;;51.00;43.25;19.90;46.50;;;;;;5074215;28;8809;-65
2021/10/06 10:48:08;;;;;;;;;50.25;42.75;20.20;45.80;;;;;;5074020;28;8786;-66
2021/10/06 10:50:41;;;;;;;;;49.00;41.75;20.40;45.80;;;;;;5074294;28;9444;-66
2021/10/06 10:53:08;;;;;;;;;49.00;42.00;20.50;45.20;;;;;;5073984;28;8781;-65
2021/10/06 10:55:47;;;;;;;;;43.75;39.00;20.40;44.50;;;;;;5080113;28;8770;-66
2021/10/06 10:58:32;;;;;;;;;46.50;40.50;20.50;45.50;;;;;;5077090;28;8796;-66
2021/10/06 11:01:07;;;;;;;;;43.25;37.75;20.00;45.50;;;;;;5063255;28;8812;-66
2021/10/06 11:04:09;;;;;;;;;47.00;40.75;20.20;46.00;;;;;;5093988;28;8863;-66
2021/10/06 11:06:36;;;;;;;;;40.00;36.50;20.00;46.10;;;;;;5079414;28;8766;-65
2021/10/06 11:09:31;;;;;;;;;46.50;39.50;19.90;45.70;;;;;;5080187;28;9470;-64
2021/10/06 11:12:06;;;;;;;;;47.00;40.75;20.20;45.70;;;;;;5078814;28;8778;-65
2021/10/06 11:14:36;;;;;;;;;43.25;38.25;20.60;45.70;;;;;;5084739;28;8863;-68
2021/10/06 11:17:07;;;;;;;;;47.75;41.50;20.90;44.40;;;;;;5084915;28;8760;-65
2021/10/06 11:19:42;;;;;;;;;35.50;34.25;20.90;43.90;;;;;;5092817;28;8772;-65
2021/10/06 11:22:23;;;;;;;;;45.25;39.00;20.70;44.20;;;;;;5072563;28;8787;-64
2021/10/06 11:24:48;;;;;;;;;39.50;36.25;20.70;44.00;;;;;;5097571;28;8787;-65
2021/10/06 11:27:15;;;;;;;;;35.75;33.00;21.10;43.70;;;;;;5097330;28;8857;-65
2021/10/06 11:29:47;;;;;;;;;43.50;38.75;21.40;43.20;;;;;;5094932;28;9425;-66
2021/10/06 11:32:13;;;;;;;;;43.75;38.25;21.80;42.00;;;;;;5082309;28;8762;-66
2021/10/06 11:34:54;;;;;;;;;47.00;40.00;22.00;41.00;;;;;;5078674;28;8846;-65
2021/10/06 11:37:21;;;;;;;;;40.67;36.33;22.20;41.10;;;;;;5079937;28;8814;-66
2021/10/06 11:39:48;;;;;;;;;45.00;39.00;22.90;39.70;;;;;;5083692;28;8757;-63
2021/10/06 11:42:14;;;;;;;;;40.33;36.67;22.80;39.10;;;;;;5075119;28;8754;-63
2021/10/06 11:44:43;;;;;;;;;42.75;38.00;22.60;39.50;;;;;;5066193;28;8761;-64
2021/10/06 11:47:15;;;;;;;;;39.67;35.67;22.30;39.30;;;;;;5081451;28;8786;-65
2021/10/06 11:49:43;;;;;;;;;44.00;39.00;22.60;39.30;;;;;;5087002;28;9359;-62
2021/10/06 11:52:11;;;;;;;;;38.33;35.33;22.40;39.10;;;;;;5097215;28;8787;-62
2021/10/06 11:54:37;;;;;;;;;42.67;37.33;22.40;39.10;;;;;;5097015;28;8811;-64
2021/10/06 11:57:09;;;;;;;;;43.67;38.33;22.50;39.80;;;;;;5092241;28;8770;-59
2021/10/06 11:59:36;;;;;;;;;40.33;36.00;22.40;39.40;;;;;;5084737;28;8857;-61
2021/10/06 12:02:07;;;;;;;;;42.00;37.00;22.70;40.30;;;;;;5076331;28;8828;-60
2021/10/06 12:04:56;;;;;;;;;46.33;39.67;22.30;38.60;;;;;;5076687;28;8880;-59
2021/10/06 12:07:25;;;;;;;;;40.33;36.33;22.30;39.30;;;;;;5076879;28;9432;-61
2021/10/06 12:09:53;;;;;;;;;36.67;34.00;22.20;38.90;;;;;;5076727;28;8765;-59
2021/10/06 12:12:23;;;;;;;;;45.00;39.33;22.20;39.50;;;;;;5076755;28;8757;-59
2021/10/06 12:14:57;;;;;;;;;38.67;35.33;22.30;39.10;;;;;;5076051;28;8817;-60
2021/10/06 12:17:26;;;;;;;;;36.67;34.00;22.20;38.80;;;;;;5076257;28;8762;-60
2021/10/06 12:20:29;;;;;;;;;40.00;37.00;21.70;39.60;;;;;;5076381;28;8779;-59
2021/10/06 12:22:57;;;;;;;;;38.67;35.67;21.90;40.00;;;;;;5076335;28;8770;-62
2021/10/06 12:25:25;;;;;;;;;38.00;35.00;22.10;40.10;;;;;;5076002;28;8789;-60
2021/10/06 12:28:07;;;;;;;;;36.67;34.33;22.00;39.00;;;;;;5076156;28;8765;-58
2021/10/06 12:30:36;;;;;;;;;46.00;40.33;22.10;38.80;;;;;;5076027;28;8762;-60
2021/10/06 12:33:13;;;;;;;;;43.00;37.67;22.30;39.80;;;;;;5076296;28;8834;-62
2021/10/06 12:35:39;;;;;;;;;47.50;40.25;22.50;38.20;;;;;;5076268;28;8776;-61
2021/10/06 12:38:05;;;;;;;;;48.00;41.00;23.00;39.00;;;;;;5075974;28;8837;-61